sensor_id;sensor_type;location;lat;lon;timestamp;pressure;altitude;pressure_sealevel;temperature;humidity
24306;BME280;12423;48.768;8.850;2022-09-23T00:01:27;97231.41;;;6.43;100.00
24306;BME280;12423;48.768;8.850;2022-09-23T00:03:29;97222.41;;;6.45;100.00
24306;BME280;12423;48.768;8.850;2022-09-23T00:05:31;97227.38;;;6.37;100.00
24306;BME280;12423;48.768;8.850;2022-09-23T00:07:32;97220.75;;;6.30;100.00
24306;BME280;12423;48.768;8.850;2022-09-23T00:09:33;97224.00;;;6.35;100.00
24306;BME280;12423;48.768;8.850;2022-09-23T00:11:34;97218.34;;;6.27;100.00
24306;BME280;12423;48.768;8.850;2022-09-23T00:13:36;97222.19;;;6.36;100.00
24306;BME280;12423;48.768;8.850;2022-09-23T00:15:38;97224.53;;;6.40;100.00
24306;BME280;12423;48.768;8.850;2022-09-23T00:17:39;97219.88;;;6.44;100.00
24306;BME280;12423;48.768;8.850;2022-09-23T00:19:40;97220.81;;;6.43;100.00
24306;BME280;12423;48.768;8.850;2022-09-23T00:21:41;97221.34;;;6.35;100.00
24306;BME280;12423;48.768;8.850;2022-09-23T00:23:42;97221.19;;;6.24;100.00
24306;BME280;12423;48.768;8.850;2022-09-23T00:25:43;97219.28;;;6.26;100.00
24306;BME280;12423;48.768;8.850;2022-09-23T00:27:44;97215.09;;;6.22;100.00
24306;BME280;12423;48.768;8.850;2022-09-23T00:29:46;97220.84;;;6.28;100.00
24306;BME280;12423;48.768;8.850;2022-09-23T00:31:47;97217.56;;;6.25;100.00
24306;BME280;12423;48.768;8.850;2022-09-23T00:33:55;97219.13;;;6.15;100.00
24306;BME280;12423;48.768;8.850;2022-09-23T00:36:01;97211.72;;;6.20;100.00
24306;BME280;12423;48.768;8.850;2022-09-23T00:38:02;97212.47;;;6.22;100.00
24306;BME280;12423;48.768;8.850;2022-09-23T00:40:04;97211.91;;;6.17;100.00
24306;BME280;12423;48.768;8.850;2022-09-23T00:42:10;97212.00;;;6.15;100.00
24306;BME280;12423;48.768;8.850;2022-09-23T00:44:39;97214.06;;;5.97;100.00
24306;BME280;12423;48.768;8.850;2022-09-23T00:46:41;97204.13;;;5.86;100.00
24306;BME280;12423;48.768;8.850;2022-09-23T00:48:47;97208.84;;;5.96;100.00
24306;BME280;12423;48.768;8.850;2022-09-23T00:50:51;97210.06;;;5.90;100.00
24306;BME280;12423;48.768;8.850;2022-09-23T00:52:55;97210.16;;;6.03;100.00
24306;BME280;12423;48.768;8.850;2022-09-23T00:54:59;97207.41;;;6.04;100.00
24306;BME280;12423;48.768;8.850;2022-09-23T00:57:02;97205.50;;;6.06;100.00
24306;BME280;12423;48.768;8.850;2022-09-23T00:59:06;97204.13;;;6.01;100.00
24306;BME280;12423;48.768;8.850;2022-09-23T01:01:09;97199.13;;;5.96;100.00
24306;BME280;12423;48.768;8.850;2022-09-23T01:03:12;97197.22;;;5.98;100.00
24306;BME280;12423;48.768;8.850;2022-09-23T01:05:15;97193.03;;;5.94;100.00
24306;BME280;12423;48.768;8.850;2022-09-23T01:07:18;97189.84;;;5.89;100.00
24306;BME280;12423;48.768;8.850;2022-09-23T01:09:20;97196.72;;;5.91;100.00
24306;BME280;12423;48.768;8.850;2022-09-23T01:14:00;97194.56;;;5.84;100.00
24306;BME280;12423;48.768;8.850;2022-09-23T01:16:24;97193.72;;;5.83;100.00
24306;BME280;12423;48.768;8.850;2022-09-23T01:18:48;97196.00;;;5.75;100.00
24306;BME280;12423;48.768;8.850;2022-09-23T01:20:58;97194.09;;;5.77;100.00
24306;BME280;12423;48.768;8.850;2022-09-23T01:25:37;97195.81;;;5.78;100.00
24306;BME280;12423;48.768;8.850;2022-09-23T01:33:06;97192.63;;;5.73;100.00
24306;BME280;12423;48.768;8.850;2022-09-23T01:37:27;97195.56;;;5.68;100.00
24306;BME280;12423;48.768;8.850;2022-09-23T01:39:39;97183.47;;;5.64;100.00
24306;BME280;12423;48.768;8.850;2022-09-23T01:41:49;97182.88;;;5.59;100.00
24306;BME280;12423;48.768;8.850;2022-09-23T01:46:19;97179.66;;;5.68;100.00
24306;BME280;12423;48.768;8.850;2022-09-23T01:48:43;97174.53;;;5.65;100.00
24306;BME280;12423;48.768;8.850;2022-09-23T01:50:58;97175.06;;;5.58;100.00
24306;BME280;12423;48.768;8.850;2022-09-23T01:53:03;97171.34;;;5.60;100.00
24306;BME280;12423;48.768;8.850;2022-09-23T01:55:18;97172.41;;;5.58;100.00
24306;BME280;12423;48.768;8.850;2022-09-23T01:57:22;97169.84;;;5.56;100.00
24306;BME280;12423;48.768;8.850;2022-09-23T01:59:31;97162.75;;;5.42;100.00
24306;BME280;12423;48.768;8.850;2022-09-23T02:01:54;97161.53;;;5.48;100.00
24306;BME280;12423;48.768;8.850;2022-09-23T02:04:01;97161.63;;;5.46;100.00
24306;BME280;12423;48.768;8.850;2022-09-23T02:06:19;97163.22;;;5.49;100.00
24306;BME280;12423;48.768;8.850;2022-09-23T02:08:49;97154.72;;;5.44;100.00
24306;BME280;12423;48.768;8.850;2022-09-23T02:10:48;97166.16;;;5.44;100.00
24306;BME280;12423;48.768;8.850;2022-09-23T02:12:53;97166.84;;;5.48;100.00
24306;BME280;12423;48.768;8.850;2022-09-23T02:15:15;97152.81;;;5.46;100.00
24306;BME280;12423;48.768;8.850;2022-09-23T02:17:25;97157.16;;;5.47;100.00
24306;BME280;12423;48.768;8.850;2022-09-23T02:19:33;97150.75;;;5.37;100.00
24306;BME280;12423;48.768;8.850;2022-09-23T02:21:40;97155.97;;;5.38;100.00
24306;BME280;12423;48.768;8.850;2022-09-23T02:23:48;97165.88;;;5.34;100.00
24306;BME280;12423;48.768;8.850;2022-09-23T02:26:07;97159.84;;;5.32;100.00
24306;BME280;12423;48.768;8.850;2022-09-23T02:28:15;97159.88;;;5.18;100.00
24306;BME280;12423;48.768;8.850;2022-09-23T02:30:30;97156.06;;;5.22;100.00
24306;BME280;12423;48.768;8.850;2022-09-23T02:35:04;97156.91;;;5.37;100.00
24306;BME280;12423;48.768;8.850;2022-09-23T02:39:31;97154.25;;;5.23;100.00
24306;BME280;12423;48.768;8.850;2022-09-23T02:41:50;97154.75;;;5.15;100.00
24306;BME280;12423;48.768;8.850;2022-09-23T02:43:56;97145.66;;;5.19;100.00
24306;BME280;12423;48.768;8.850;2022-09-23T02:46:02;97151.72;;;5.21;100.00
24306;BME280;12423;48.768;8.850;2022-09-23T02:48:17;97147.47;;;5.19;100.00
24306;BME280;12423;48.768;8.850;2022-09-23T02:50:18;97150.03;;;5.20;100.00
24306;BME280;12423;48.768;8.850;2022-09-23T02:52:19;97144.22;;;5.28;100.00
24306;BME280;12423;48.768;8.850;2022-09-23T02:54:23;97148.59;;;5.29;100.00
24306;BME280;12423;48.768;8.850;2022-09-23T02:56:25;97134.69;;;5.25;100.00
24306;BME280;12423;48.768;8.850;2022-09-23T02:58:26;97140.84;;;5.26;100.00
24306;BME280;12423;48.768;8.850;2022-09-23T03:01:22;97137.44;;;5.24;100.00
24306;BME280;12423;48.768;8.850;2022-09-23T03:03:17;97140.84;;;5.26;100.00
24306;BME280;12423;48.768;8.850;2022-09-23T03:05:30;97138.69;;;5.18;100.00
24306;BME280;12423;48.768;8.850;2022-09-23T03:09:53;97132.44;;;5.19;100.00
24306;BME280;12423;48.768;8.850;2022-09-23T03:12:13;97136.13;;;5.16;100.00
24306;BME280;12423;48.768;8.850;2022-09-23T03:14:35;97132.44;;;5.19;100.00
24306;BME280;12423;48.768;8.850;2022-09-23T03:21:15;97123.56;;;5.06;100.00
24306;BME280;12423;48.768;8.850;2022-09-23T03:23:26;97120.25;;;5.02;100.00
24306;BME280;12423;48.768;8.850;2022-09-23T03:25:30;97124.84;;;5.13;100.00
24306;BME280;12423;48.768;8.850;2022-09-23T03:27:34;97125.81;;;5.12;100.00
24306;BME280;12423;48.768;8.850;2022-09-23T03:29:35;97129.13;;;5.15;100.00
24306;BME280;12423;48.768;8.850;2022-09-23T03:31:37;97132.16;;;5.09;100.00
24306;BME280;12423;48.768;8.850;2022-09-23T03:33:44;97124.94;;;5.11;100.00
24306;BME280;12423;48.768;8.850;2022-09-23T03:35:51;97113.34;;;4.99;100.00
24306;BME280;12423;48.768;8.850;2022-09-23T03:38:12;97117.88;;;4.97;100.00
24306;BME280;12423;48.768;8.850;2022-09-23T03:40:21;97116.06;;;4.98;100.00
24306;BME280;12423;48.768;8.850;2022-09-23T03:42:25;97117.13;;;4.95;100.00
24306;BME280;12423;48.768;8.850;2022-09-23T03:44:28;97112.88;;;4.93;100.00
24306;BME280;12423;48.768;8.850;2022-09-23T03:46:29;97119.03;;;4.93;100.00
24306;BME280;12423;48.768;8.850;2022-09-23T03:48:30;97115.41;;;4.94;100.00
24306;BME280;12423;48.768;8.850;2022-09-23T03:50:31;97115.41;;;4.94;100.00
24306;BME280;12423;48.768;8.850;2022-09-23T03:52:32;97116.47;;;4.92;100.00
24306;BME280;12423;48.768;8.850;2022-09-23T03:54:33;97107.66;;;4.91;100.00
24306;BME280;12423;48.768;8.850;2022-09-23T03:56:34;97114.78;;;4.91;100.00
24306;BME280;12423;48.768;8.850;2022-09-23T03:58:35;97111.47;;;4.87;100.00
24306;BME280;12423;48.768;8.850;2022-09-23T04:00:36;97114.69;;;4.92;100.00
24306;BME280;12423;48.768;8.850;2022-09-23T04:02:37;97113.16;;;4.88;100.00
24306;BME280;12423;48.768;8.850;2022-09-23T04:04:38;97108.06;;;4.85;100.00
24306;BME280;12423;48.768;8.850;2022-09-23T04:06:40;97103.63;;;4.86;100.00
24306;BME280;12423;48.768;8.850;2022-09-23T04:08:41;97108.91;;;4.86;100.00
24306;BME280;12423;48.768;8.850;2022-09-23T04:10:42;97107.47;;;4.80;100.00
24306;BME280;12423;48.768;8.850;2022-09-23T04:12:43;97096.88;;;4.80;100.00
24306;BME280;12423;48.768;8.850;2022-09-23T04:14:44;97101.53;;;4.76;100.00
24306;BME280;12423;48.768;8.850;2022-09-23T04:16:47;97099.94;;;4.74;100.00
24306;BME280;12423;48.768;8.850;2022-09-23T04:18:48;97098.03;;;4.76;100.00
24306;BME280;12423;48.768;8.850;2022-09-23T04:20:48;97093.03;;;4.71;100.00
24306;BME280;12423;48.768;8.850;2022-09-23T04:22:49;97100.88;;;4.73;100.00
24306;BME280;12423;48.768;8.850;2022-09-23T04:24:50;97103.34;;;4.76;100.00
24306;BME280;12423;48.768;8.850;2022-09-23T04:26:53;97092.84;;;4.74;100.00
24306;BME280;12423;48.768;8.850;2022-09-23T04:28:54;97097.84;;;4.65;100.00
24306;BME280;12423;48.768;8.850;2022-09-23T04:30:55;97087.72;;;4.71;100.00
24306;BME280;12423;48.768;8.850;2022-09-23T04:32:57;97098.22;;;4.58;100.00
24306;BME280;12423;48.768;8.850;2022-09-23T04:34:58;97097.94;;;4.63;100.00
24306;BME280;12423;48.768;8.850;2022-09-23T04:36:59;97096.81;;;4.67;100.00
24306;BME280;12423;48.768;8.850;2022-09-23T04:39:00;97090.84;;;4.64;100.00
24306;BME280;12423;48.768;8.850;2022-09-23T04:41:01;97096.81;;;4.67;100.00
24306;BME280;12423;48.768;8.850;2022-09-23T04:43:02;97091.44;;;4.69;100.00
24306;BME280;12423;48.768;8.850;2022-09-23T04:45:04;97094.44;;;4.63;100.00
24306;BME280;12423;48.768;8.850;2022-09-23T04:47:05;97092.00;;;4.74;100.00
24306;BME280;12423;48.768;8.850;2022-09-23T04:49:06;97083.19;;;4.73;100.00
24306;BME280;12423;48.768;8.850;2022-09-23T04:51:13;97091.34;;;4.70;100.00
24306;BME280;12423;48.768;8.850;2022-09-23T04:53:15;97096.63;;;4.70;100.00
24306;BME280;12423;48.768;8.850;2022-09-23T04:55:16;97092.38;;;4.68;100.00
24306;BME280;12423;48.768;8.850;2022-09-23T04:57:17;97095.78;;;4.55;100.00
24306;BME280;12423;48.768;8.850;2022-09-23T04:59:18;97105.03;;;4.63;100.00
24306;BME280;12423;48.768;8.850;2022-09-23T05:01:22;97097.28;;;4.59;100.00
24306;BME280;12423;48.768;8.850;2022-09-23T05:03:26;97102.47;;;4.61;100.00
24306;BME280;12423;48.768;8.850;2022-09-23T05:05:29;97098.03;;;4.61;100.00
24306;BME280;12423;48.768;8.850;2022-09-23T05:07:31;97110.41;;;4.61;100.00
24306;BME280;12423;48.768;8.850;2022-09-23T05:09:32;97099.75;;;4.63;100.00
24306;BME280;12423;48.768;8.850;2022-09-23T05:11:34;97105.88;;;4.63;100.00
24306;BME280;12423;48.768;8.850;2022-09-23T05:13:35;97106.72;;;4.64;100.00
24306;BME280;12423;48.768;8.850;2022-09-23T05:15:36;97115.44;;;4.66;100.00
24306;BME280;12423;48.768;8.850;2022-09-23T05:17:37;97117.22;;;4.65;100.00
24306;BME280;12423;48.768;8.850;2022-09-23T05:19:38;97117.69;;;4.57;100.00
24306;BME280;12423;48.768;8.850;2022-09-23T05:21:39;97119.59;;;4.55;100.00
24306;BME280;12423;48.768;8.850;2022-09-23T05:23:40;97120.06;;;4.62;100.00
24306;BME280;12423;48.768;8.850;2022-09-23T05:25:42;97119.19;;;4.61;100.00
24306;BME280;12423;48.768;8.850;2022-09-23T05:27:44;97110.16;;;4.66;100.00
24306;BME280;12423;48.768;8.850;2022-09-23T05:29:46;97112.38;;;4.72;100.00
24306;BME280;12423;48.768;8.850;2022-09-23T05:31:47;97117.41;;;4.76;100.00
24306;BME280;12423;48.768;8.850;2022-09-23T05:33:50;97112.03;;;4.78;100.00
24306;BME280;12423;48.768;8.850;2022-09-23T05:35:51;97112.41;;;4.86;100.00
24306;BME280;12423;48.768;8.850;2022-09-23T05:37:53;97103.63;;;4.86;100.00
24306;BME280;12423;48.768;8.850;2022-09-23T05:39:54;97109.38;;;4.92;100.00
24306;BME280;12423;48.768;8.850;2022-09-23T05:41:55;97108.53;;;4.92;100.00
24306;BME280;12423;48.768;8.850;2022-09-23T05:43:56;97104.00;;;4.94;100.00
24306;BME280;12423;48.768;8.850;2022-09-23T05:46:02;97111.66;;;4.98;100.00
24306;BME280;12423;48.768;8.850;2022-09-23T05:48:03;97112.13;;;5.05;100.00
24306;BME280;12423;48.768;8.850;2022-09-23T05:50:05;97118.81;;;5.11;100.00
24306;BME280;12423;48.768;8.850;2022-09-23T05:52:06;97112.59;;;5.12;100.00
24306;BME280;12423;48.768;8.850;2022-09-23T05:54:07;97111.25;;;5.19;100.00
24306;BME280;12423;48.768;8.850;2022-09-23T05:56:08;97111.41;;;5.30;100.00
24306;BME280;12423;48.768;8.850;2022-09-23T05:58:09;97107.16;;;5.28;100.00
24306;BME280;12423;48.768;8.850;2022-09-23T06:00:10;97108.47;;;5.35;100.00
24306;BME280;12423;48.768;8.850;2022-09-23T06:02:14;97111.88;;;5.37;100.00
24306;BME280;12423;48.768;8.850;2022-09-23T06:04:15;97107.22;;;5.41;100.00
24306;BME280;12423;48.768;8.850;2022-09-23T06:06:19;97109.47;;;5.47;100.00
24306;BME280;12423;48.768;8.850;2022-09-23T06:08:22;97110.88;;;5.52;100.00
24306;BME280;12423;48.768;8.850;2022-09-23T06:10:23;97114.50;;;5.51;100.00
24306;BME280;12423;48.768;8.850;2022-09-23T06:12:24;97113.03;;;5.60;100.00
24306;BME280;12423;48.768;8.850;2022-09-23T06:14:25;97107.34;;;5.66;100.00
24306;BME280;12423;48.768;8.850;2022-09-23T06:16:27;97115.53;;;5.76;100.00
24306;BME280;12423;48.768;8.850;2022-09-23T06:18:28;97112.59;;;5.81;100.00
24306;BME280;12423;48.768;8.850;2022-09-23T06:20:30;97110.50;;;5.86;100.00
24306;BME280;12423;48.768;8.850;2022-09-23T06:22:31;97105.53;;;5.94;100.00
24306;BME280;12423;48.768;8.850;2022-09-23T06:24:32;97099.09;;;5.98;100.00
24306;BME280;12423;48.768;8.850;2022-09-23T06:26:34;97103.69;;;6.09;100.00
24306;BME280;12423;48.768;8.850;2022-09-23T06:28:38;97093.63;;;6.14;100.00
24306;BME280;12423;48.768;8.850;2022-09-23T06:30:39;97099.03;;;6.13;100.00
24306;BME280;12423;48.768;8.850;2022-09-23T06:32:40;97097.66;;;6.20;100.00
24306;BME280;12423;48.768;8.850;2022-09-23T06:34:42;97098.19;;;6.25;100.00
24306;BME280;12423;48.768;8.850;2022-09-23T06:36:45;97096.50;;;6.37;100.00
24306;BME280;12423;48.768;8.850;2022-09-23T06:38:46;97092.91;;;6.51;100.00
24306;BME280;12423;48.768;8.850;2022-09-23T06:40:54;97097.72;;;6.58;100.00
24306;BME280;12423;48.768;8.850;2022-09-23T06:42:57;97090.91;;;6.67;100.00
24306;BME280;12423;48.768;8.850;2022-09-23T06:44:58;97091.13;;;6.77;100.00
24306;BME280;12423;48.768;8.850;2022-09-23T06:47:01;97094.41;;;6.80;100.00
24306;BME280;12423;48.768;8.850;2022-09-23T06:49:02;97094.28;;;6.95;100.00
24306;BME280;12423;48.768;8.850;2022-09-23T06:51:04;97093.50;;;7.06;100.00
24306;BME280;12423;48.768;8.850;2022-09-23T06:53:06;97094.44;;;7.17;100.00
24306;BME280;12423;48.768;8.850;2022-09-23T06:55:08;97091.88;;;7.29;100.00
24306;BME280;12423;48.768;8.850;2022-09-23T06:57:09;97089.38;;;7.38;100.00
24306;BME280;12423;48.768;8.850;2022-09-23T06:59:10;97093.94;;;7.49;100.00
24306;BME280;12423;48.768;8.850;2022-09-23T07:01:14;97095.69;;;7.62;100.00
24306;BME280;12423;48.768;8.850;2022-09-23T07:03:16;97081.28;;;7.77;100.00
24306;BME280;12423;48.768;8.850;2022-09-23T07:05:17;97089.78;;;7.93;100.00
24306;BME280;12423;48.768;8.850;2022-09-23T07:07:18;97087.41;;;8.02;100.00
24306;BME280;12423;48.768;8.850;2022-09-23T07:09:19;97087.34;;;8.15;100.00
24306;BME280;12423;48.768;8.850;2022-09-23T07:11:20;97091.63;;;8.28;100.00
24306;BME280;12423;48.768;8.850;2022-09-23T07:13:22;97095.69;;;8.45;100.00
24306;BME280;12423;48.768;8.850;2022-09-23T07:15:25;97089.66;;;8.55;100.00
24306;BME280;12423;48.768;8.850;2022-09-23T07:17:26;97090.53;;;8.66;100.00
24306;BME280;12423;48.768;8.850;2022-09-23T07:19:26;97096.00;;;8.76;100.00
24306;BME280;12423;48.768;8.850;2022-09-23T07:21:27;97089.81;;;8.87;100.00
24306;BME280;12423;48.768;8.850;2022-09-23T07:23:28;97085.56;;;9.07;100.00
24306;BME280;12423;48.768;8.850;2022-09-23T07:25:29;97090.19;;;9.16;100.00
24306;BME280;12423;48.768;8.850;2022-09-23T07:27:33;97084.97;;;9.26;100.00
24306;BME280;12423;48.768;8.850;2022-09-23T07:29:34;97089.41;;;9.37;100.00
24306;BME280;12423;48.768;8.850;2022-09-23T07:31:35;97086.03;;;9.46;100.00
24306;BME280;12423;48.768;8.850;2022-09-23T07:33:38;97080.44;;;9.49;100.00
24306;BME280;12423;48.768;8.850;2022-09-23T07:35:40;97086.84;;;9.58;100.00
24306;BME280;12423;48.768;8.850;2022-09-23T07:37:41;97084.63;;;9.74;100.00
24306;BME280;12423;48.768;8.850;2022-09-23T07:39:43;97095.25;;;9.86;100.00
24306;BME280;12423;48.768;8.850;2022-09-23T07:41:44;97088.06;;;9.98;100.00
24306;BME280;12423;48.768;8.850;2022-09-23T07:43:46;97090.81;;;10.07;100.00
24306;BME280;12423;48.768;8.850;2022-09-23T07:45:47;97090.44;;;10.12;100.00
24306;BME280;12423;48.768;8.850;2022-09-23T07:47:48;97090.50;;;10.22;100.00
24306;BME280;12423;48.768;8.850;2022-09-23T07:49:49;97091.69;;;10.29;100.00
24306;BME280;12423;48.768;8.850;2022-09-23T07:51:50;97088.88;;;10.42;100.00
24306;BME280;12423;48.768;8.850;2022-09-23T07:53:53;97100.38;;;10.42;100.00
24306;BME280;12423;48.768;8.850;2022-09-23T07:55:55;97087.22;;;10.50;100.00
24306;BME280;12423;48.768;8.850;2022-09-23T07:57:56;97089.00;;;10.61;100.00
24306;BME280;12423;48.768;8.850;2022-09-23T07:59:57;97095.50;;;10.68;100.00
24306;BME280;12423;48.768;8.850;2022-09-23T08:01:58;97095.09;;;10.73;100.00
24306;BME280;12423;48.768;8.850;2022-09-23T08:04:02;97102.59;;;10.79;100.00
24306;BME280;12423;48.768;8.850;2022-09-23T08:06:09;97097.25;;;10.79;100.00
24306;BME280;12423;48.768;8.850;2022-09-23T08:08:11;97096.19;;;10.92;100.00
24306;BME280;12423;48.768;8.850;2022-09-23T08:10:14;97102.16;;;11.05;100.00
24306;BME280;12423;48.768;8.850;2022-09-23T08:12:18;97096.09;;;11.03;100.00
24306;BME280;12423;48.768;8.850;2022-09-23T08:14:20;97097.38;;;11.09;100.00
24306;BME280;12423;48.768;8.850;2022-09-23T08:16:22;97097.00;;;11.13;100.00
24306;BME280;12423;48.768;8.850;2022-09-23T08:18:23;97099.69;;;11.23;100.00
24306;BME280;12423;48.768;8.850;2022-09-23T08:20:25;97105.09;;;11.33;100.00
24306;BME280;12423;48.768;8.850;2022-09-23T08:22:49;97098.19;;;11.40;100.00
24306;BME280;12423;48.768;8.850;2022-09-23T08:24:50;97096.00;;;11.45;100.00
24306;BME280;12423;48.768;8.850;2022-09-23T08:26:52;97098.53;;;11.56;100.00
24306;BME280;12423;48.768;8.850;2022-09-23T08:28:54;97101.50;;;11.63;100.00
24306;BME280;12423;48.768;8.850;2022-09-23T08:30:56;97099.59;;;11.75;100.00
24306;BME280;12423;48.768;8.850;2022-09-23T08:32:57;97104.38;;;11.81;100.00
24306;BME280;12423;48.768;8.850;2022-09-23T08:34:58;97098.09;;;11.92;100.00
24306;BME280;12423;48.768;8.850;2022-09-23T08:36:59;97093.28;;;11.95;100.00
24306;BME280;12423;48.768;8.850;2022-09-23T08:39:00;97086.69;;;12.00;100.00
24306;BME280;12423;48.768;8.850;2022-09-23T08:41:18;97086.84;;;12.08;100.00
24306;BME280;12423;48.768;8.850;2022-09-23T08:43:26;97089.34;;;12.19;100.00
24306;BME280;12423;48.768;8.850;2022-09-23T08:45:27;97089.50;;;12.27;100.00
24306;BME280;12423;48.768;8.850;2022-09-23T08:50:04;97088.91;;;12.53;100.00
24306;BME280;12423;48.768;8.850;2022-09-23T08:52:41;97089.59;;;12.55;100.00
24306;BME280;12423;48.768;8.850;2022-09-23T08:54:44;97086.38;;;12.61;100.00
24306;BME280;12423;48.768;8.850;2022-09-23T08:56:48;97084.94;;;12.67;100.00
24306;BME280;12423;48.768;8.850;2022-09-23T08:58:54;97082.50;;;12.73;100.00
24306;BME280;12423;48.768;8.850;2022-09-23T09:01:13;97087.72;;;12.85;100.00
24306;BME280;12423;48.768;8.850;2022-09-23T09:03:32;97078.66;;;12.96;100.00
24306;BME280;12423;48.768;8.850;2022-09-23T09:05:33;97085.09;;;13.13;100.00
24306;BME280;12423;48.768;8.850;2022-09-23T09:07:37;97086.91;;;13.22;100.00
24306;BME280;12423;48.768;8.850;2022-09-23T09:11:53;97083.59;;;13.28;100.00
24306;BME280;12423;48.768;8.850;2022-09-23T09:14:10;97081.63;;;13.30;100.00
24306;BME280;12423;48.768;8.850;2022-09-23T09:16:25;97076.41;;;13.38;100.00
24306;BME280;12423;48.768;8.850;2022-09-23T09:18:29;97075.88;;;13.53;100.00
24306;BME280;12423;48.768;8.850;2022-09-23T09:23:42;97068.75;;;13.89;100.00
24306;BME280;12423;48.768;8.850;2022-09-23T09:25:53;97069.63;;;14.08;100.00
24306;BME280;12423;48.768;8.850;2022-09-23T09:27:57;97064.38;;;14.24;100.00
24306;BME280;12423;48.768;8.850;2022-09-23T09:29:58;97069.03;;;14.40;100.00
24306;BME280;12423;48.768;8.850;2022-09-23T09:32:11;97065.78;;;14.54;100.00
24306;BME280;12423;48.768;8.850;2022-09-23T09:34:39;97064.91;;;14.64;100.00
24306;BME280;12423;48.768;8.850;2022-09-23T09:38:59;97056.63;;;14.83;100.00
24306;BME280;12423;48.768;8.850;2022-09-23T09:41:10;97058.56;;;14.73;100.00
24306;BME280;12423;48.768;8.850;2022-09-23T09:43:18;97050.53;;;14.81;100.00
24306;BME280;12423;48.768;8.850;2022-09-23T09:45:45;97060.25;;;15.00;100.00
24306;BME280;12423;48.768;8.850;2022-09-23T09:52:23;97051.78;;;15.21;100.00
24306;BME280;12423;48.768;8.850;2022-09-23T09:54:29;97038.50;;;15.62;100.00
24306;BME280;12423;48.768;8.850;2022-09-23T09:56:32;97044.69;;;15.55;99.34
24306;BME280;12423;48.768;8.850;2022-09-23T09:58:48;97040.09;;;15.90;98.65
24306;BME280;12423;48.768;8.850;2022-09-23T10:00:51;97033.75;;;16.24;98.56
24306;BME280;12423;48.768;8.850;2022-09-23T10:05:26;97035.06;;;16.52;94.51
24306;BME280;12423;48.768;8.850;2022-09-23T10:07:30;97034.06;;;16.62;92.11
24306;BME280;12423;48.768;8.850;2022-09-23T10:09:34;97037.25;;;16.57;92.76
24306;BME280;12423;48.768;8.850;2022-09-23T10:11:36;97040.28;;;16.62;95.65
24306;BME280;12423;48.768;8.850;2022-09-23T10:13:37;97036.41;;;16.73;90.69
24306;BME280;12423;48.768;8.850;2022-09-23T10:15:41;97041.28;;;16.53;92.31
24306;BME280;12423;48.768;8.850;2022-09-23T10:17:48;97037.59;;;16.46;91.33
24306;BME280;12423;48.768;8.850;2022-09-23T10:19:55;97030.00;;;16.57;87.83
24306;BME280;12423;48.768;8.850;2022-09-23T10:22:08;97033.19;;;16.77;84.88
24306;BME280;12423;48.768;8.850;2022-09-23T10:24:21;97035.84;;;17.02;84.07
24306;BME280;12423;48.768;8.850;2022-09-23T10:26:29;97031.16;;;16.96;82.49
24306;BME280;12423;48.768;8.850;2022-09-23T10:28:47;97026.78;;;17.43;82.48
24306;BME280;12423;48.768;8.850;2022-09-23T10:31:04;97026.19;;;17.95;80.25
24306;BME280;12423;48.768;8.850;2022-09-23T10:33:25;97018.56;;;17.99;75.28
24306;BME280;12423;48.768;8.850;2022-09-23T10:35:27;97022.84;;;18.31;74.90
24306;BME280;12423;48.768;8.850;2022-09-23T10:37:52;97018.94;;;19.10;71.70
24306;BME280;12423;48.768;8.850;2022-09-23T10:39:53;97020.34;;;19.21;70.92
24306;BME280;12423;48.768;8.850;2022-09-23T10:45:25;97010.31;;;19.51;65.19
24306;BME280;12423;48.768;8.850;2022-09-23T10:48:02;97012.09;;;19.95;64.42
24306;BME280;12423;48.768;8.850;2022-09-23T10:52:52;97003.34;;;21.63;58.93
24306;BME280;12423;48.768;8.850;2022-09-23T11:18:42;96985.47;;;25.94;43.70
24306;BME280;12423;48.768;8.850;2022-09-23T11:29:54;96972.50;;;26.74;40.75
24306;BME280;12423;48.768;8.850;2022-09-23T11:37:02;96964.00;;;27.87;39.36
24306;BME280;12423;48.768;8.850;2022-09-23T11:39:11;96960.09;;;27.07;40.91
24306;BME280;12423;48.768;8.850;2022-09-23T11:41:24;96953.81;;;28.28;38.89
24306;BME280;12423;48.768;8.850;2022-09-23T11:43:29;96949.97;;;28.58;39.17
24306;BME280;12423;48.768;8.850;2022-09-23T11:45:39;96950.31;;;26.52;40.65
24306;BME280;12423;48.768;8.850;2022-09-23T11:47:45;96949.34;;;27.52;39.91
24306;BME280;12423;48.768;8.850;2022-09-23T11:52:02;96948.88;;;25.28;41.64
24306;BME280;12423;48.768;8.850;2022-09-23T11:54:24;96949.63;;;23.32;45.59
24306;BME280;12423;48.768;8.850;2022-09-23T11:56:40;96949.22;;;23.28;48.44
24306;BME280;12423;48.768;8.850;2022-09-23T11:58:48;96941.25;;;24.68;47.47
24306;BME280;12423;48.768;8.850;2022-09-23T12:00:59;96941.44;;;23.84;46.72
24306;BME280;12423;48.768;8.850;2022-09-23T12:03:16;96939.44;;;24.55;46.41
24306;BME280;12423;48.768;8.850;2022-09-23T12:05:22;96943.47;;;23.95;48.18
24306;BME280;12423;48.768;8.850;2022-09-23T12:07:30;96942.50;;;25.94;45.13
24306;BME280;12423;48.768;8.850;2022-09-23T12:12:03;96940.47;;;26.86;41.86
24306;BME280;12423;48.768;8.850;2022-09-23T12:14:23;96935.03;;;27.27;40.74
24306;BME280;12423;48.768;8.850;2022-09-23T12:16:45;96937.06;;;26.48;40.75
24306;BME280;12423;48.768;8.850;2022-09-23T12:21:31;96927.66;;;24.04;45.84
24306;BME280;12423;48.768;8.850;2022-09-23T12:26:06;96933.22;;;22.53;48.71
24306;BME280;12423;48.768;8.850;2022-09-23T12:28:15;96933.59;;;22.90;49.32
24306;BME280;12423;48.768;8.850;2022-09-23T12:30:21;96933.88;;;23.86;48.13
24306;BME280;12423;48.768;8.850;2022-09-23T12:32:22;96933.19;;;24.98;46.95
24306;BME280;12423;48.768;8.850;2022-09-23T12:34:38;96923.31;;;25.15;46.68
24306;BME280;12423;48.768;8.850;2022-09-23T12:36:40;96922.72;;;25.32;45.37
24306;BME280;12423;48.768;8.850;2022-09-23T12:38:48;96923.91;;;25.17;45.09
24306;BME280;12423;48.768;8.850;2022-09-23T12:40:51;96922.44;;;24.02;47.05